createdAt,value
2018-07-15T00:01:26.657Z,0.00
2018-07-15T00:02:27.069Z,0.00
2018-07-15T00:03:26.526Z,0.00
2018-07-15T00:04:26.512Z,0.00
2018-07-15T00:05:26.523Z,0.00
2018-07-15T00:06:26.577Z,0.00
2018-07-15T00:07:26.516Z,0.00
2018-07-15T00:08:26.452Z,0.00
2018-07-15T00:09:26.594Z,0.00
2018-07-15T00:10:26.592Z,0.00
2018-07-15T00:11:27.035Z,0.00
2018-07-15T00:12:27.019Z,0.00
2018-07-15T00:13:26.597Z,0.00
2018-07-15T00:14:26.613Z,0.00
2018-07-15T00:15:26.586Z,0.00
2018-07-15T00:16:26.586Z,0.00
2018-07-15T00:17:26.587Z,0.00
2018-07-15T00:18:26.592Z,0.00
2018-07-15T00:19:26.598Z,0.00
2018-07-15T00:20:26.594Z,0.00
2018-07-15T00:21:26.663Z,0.00
2018-07-15T00:22:26.614Z,0.00
2018-07-15T00:23:26.552Z,0.00
2018-07-15T00:24:26.676Z,0.00
2018-07-15T00:25:26.674Z,0.00
2018-07-15T00:26:28.442Z,0.00
2018-07-15T00:27:26.637Z,0.00
2018-07-15T00:28:26.681Z,0.00
2018-07-15T00:29:26.622Z,0.00
2018-07-15T00:30:26.552Z,0.00
2018-07-15T00:31:26.524Z,0.00
2018-07-15T00:32:26.537Z,0.00
2018-07-15T00:33:27.142Z,0.00
2018-07-15T00:34:26.579Z,0.00
2018-07-15T00:35:26.500Z,0.00
2018-07-15T00:36:26.620Z,0.00
2018-07-15T00:37:26.572Z,0.00
2018-07-15T00:38:26.527Z,0.00
2018-07-15T00:39:26.574Z,0.00
2018-07-15T00:40:26.648Z,0.00
2018-07-15T00:41:26.566Z,0.00
2018-07-15T00:42:26.652Z,0.00
2018-07-15T00:43:26.578Z,0.00
2018-07-15T00:44:26.507Z,0.00
2018-07-15T00:45:26.493Z,0.00
2018-07-15T00:46:26.507Z,0.00
2018-07-15T00:47:26.437Z,0.00
2018-07-15T00:48:26.515Z,0.00
2018-07-15T00:49:26.556Z,0.00
2018-07-15T00:50:26.527Z,0.00
2018-07-15T00:51:26.523Z,0.00
2018-07-15T00:52:26.494Z,0.00
2018-07-15T00:53:26.566Z,0.00
2018-07-15T00:54:26.554Z,0.00
2018-07-15T00:55:26.543Z,0.00
2018-07-15T00:56:26.556Z,0.00
2018-07-15T00:57:26.562Z,0.00
2018-07-15T00:58:26.560Z,0.00
2018-07-15T00:59:26.555Z,0.00
2018-07-15T01:00:26.568Z,0.00
2018-07-15T01:01:26.563Z,0.00
2018-07-15T01:02:26.588Z,0.00
2018-07-15T01:03:28.328Z,0.00
2018-07-15T01:04:26.637Z,0.00
2018-07-15T01:05:26.549Z,0.00
2018-07-15T01:06:26.574Z,0.00
2018-07-15T01:07:26.524Z,0.00
2018-07-15T01:08:26.544Z,0.00
2018-07-15T01:09:26.543Z,0.00
2018-07-15T01:10:26.525Z,0.00
2018-07-15T01:11:26.514Z,0.00
2018-07-15T01:12:26.574Z,0.00
2018-07-15T01:13:26.758Z,0.00
2018-07-15T01:14:26.796Z,0.00
2018-07-15T01:15:27.049Z,0.00
2018-07-15T01:16:26.524Z,0.00
2018-07-15T01:17:28.363Z,0.00
2018-07-15T01:18:26.546Z,0.00
2018-07-15T01:19:26.556Z,0.00
2018-07-15T01:20:26.536Z,0.00
2018-07-15T01:21:26.698Z,0.00
2018-07-15T01:22:26.563Z,0.00
2018-07-15T01:23:26.595Z,0.00
2018-07-15T01:24:26.572Z,0.00
2018-07-15T01:25:26.590Z,0.00
2018-07-15T01:26:26.526Z,0.00
2018-07-15T01:27:26.602Z,0.00
2018-07-15T01:28:26.587Z,0.00
2018-07-15T01:29:26.755Z,0.00
2018-07-15T01:30:26.705Z,0.00
2018-07-15T01:31:26.584Z,0.00
2018-07-15T01:32:26.533Z,0.00
2018-07-15T01:33:26.598Z,0.00
2018-07-15T01:34:28.356Z,0.00
2018-07-15T01:35:26.776Z,0.00
2018-07-15T01:36:26.603Z,0.00
2018-07-15T01:37:26.659Z,0.00
2018-07-15T01:38:26.667Z,0.00
2018-07-15T01:39:26.607Z,0.00
2018-07-15T01:40:26.770Z,0.00
2018-07-15T01:41:26.701Z,0.00
2018-07-15T01:42:26.862Z,0.00
2018-07-15T01:43:26.571Z,0.00
2018-07-15T01:44:26.523Z,0.00
2018-07-15T01:45:26.547Z,0.00
2018-07-15T01:46:26.535Z,0.00
2018-07-15T01:47:26.558Z,0.00
2018-07-15T01:48:26.848Z,0.00
2018-07-15T01:49:26.589Z,0.00
2018-07-15T01:50:26.565Z,0.00
2018-07-15T01:51:28.588Z,0.00
2018-07-15T01:52:26.573Z,0.00
2018-07-15T01:53:26.570Z,0.00
2018-07-15T01:54:26.569Z,0.00
2018-07-15T01:55:28.374Z,0.00
2018-07-15T01:56:26.713Z,0.00
2018-07-15T01:57:26.541Z,0.00
2018-07-15T01:58:26.196Z,0.00
2018-07-15T01:59:27.072Z,0.00
2018-07-15T02:00:26.593Z,0.00
2018-07-15T02:01:26.603Z,0.00
2018-07-15T02:02:26.626Z,0.00
2018-07-15T02:03:26.601Z,0.00
2018-07-15T02:04:26.675Z,0.00
2018-07-15T02:05:26.599Z,0.00
2018-07-15T02:06:26.600Z,0.00
2018-07-15T02:07:26.628Z,0.00
2018-07-15T02:08:26.601Z,0.00
2018-07-15T02:09:26.631Z,0.00
2018-07-15T02:10:26.584Z,0.00
2018-07-15T02:11:26.668Z,0.00
2018-07-15T02:12:26.718Z,0.00
2018-07-15T02:13:26.718Z,0.00
2018-07-15T02:14:26.678Z,0.00
2018-07-15T02:15:26.747Z,0.00
2018-07-15T02:16:27.564Z,0.00
2018-07-15T02:17:26.586Z,0.00
2018-07-15T02:18:27.062Z,0.00
2018-07-15T02:19:26.544Z,0.00
2018-07-15T02:20:26.586Z,0.00
2018-07-15T02:21:26.791Z,0.00
2018-07-15T02:22:26.591Z,0.00
2018-07-15T02:23:26.585Z,0.00
2018-07-15T02:24:26.591Z,0.00
2018-07-15T02:25:26.572Z,0.00
2018-07-15T02:26:26.595Z,0.00
2018-07-15T02:27:26.603Z,0.00
2018-07-15T02:28:26.720Z,0.00
2018-07-15T02:29:26.608Z,0.00
2018-07-15T02:30:26.599Z,0.00
2018-07-15T02:31:26.775Z,0.00
2018-07-15T02:32:26.722Z,0.00
2018-07-15T02:33:26.639Z,0.00
2018-07-15T02:34:26.593Z,0.00
2018-07-15T02:35:26.609Z,0.00
2018-07-15T02:36:26.613Z,0.00
2018-07-15T02:37:26.651Z,0.00
2018-07-15T02:38:26.613Z,0.00
2018-07-15T02:39:26.635Z,0.00
2018-07-15T02:40:26.610Z,0.00
2018-07-15T02:41:26.726Z,0.00
2018-07-15T02:42:26.553Z,0.00
2018-07-15T02:43:26.560Z,0.00
2018-07-15T02:44:26.585Z,0.00
2018-07-15T02:45:26.590Z,0.00
2018-07-15T02:46:27.079Z,0.00
2018-07-15T02:47:26.581Z,0.00
2018-07-15T02:48:26.534Z,0.00
2018-07-15T02:49:26.582Z,0.00
2018-07-15T02:50:26.590Z,0.00
2018-07-15T02:51:26.726Z,0.00
2018-07-15T02:52:26.509Z,0.00
2018-07-15T02:53:26.748Z,4.00
2018-07-15T02:54:26.926Z,4.00
2018-07-15T02:55:26.828Z,0.00
2018-07-15T02:56:27.170Z,0.00
2018-07-15T02:57:26.472Z,4.00
2018-07-15T02:58:26.502Z,4.00
2018-07-15T02:59:26.578Z,4.00
2018-07-15T03:00:26.582Z,4.00
2018-07-15T03:01:26.621Z,4.00
2018-07-15T03:02:26.572Z,8.00
2018-07-15T03:03:26.555Z,8.00
2018-07-15T03:04:26.558Z,8.00
2018-07-15T03:05:26.561Z,12.00
2018-07-15T03:06:26.597Z,12.00
2018-07-15T03:07:26.588Z,12.00
2018-07-15T03:08:26.508Z,12.00
2018-07-15T03:09:26.650Z,16.00
2018-07-15T03:10:26.560Z,16.00
2018-07-15T03:11:26.558Z,16.00
2018-07-15T03:12:26.514Z,20.00
2018-07-15T03:13:26.590Z,20.00
2018-07-15T03:14:26.643Z,28.00
2018-07-15T03:15:28.362Z,28.00
2018-07-15T03:16:26.601Z,32.00
2018-07-15T03:17:26.662Z,36.00
2018-07-15T03:18:26.641Z,40.00
2018-07-15T03:19:28.353Z,44.00
2018-07-15T03:20:26.558Z,48.00
2018-07-15T03:21:26.556Z,56.00
2018-07-15T03:22:26.498Z,56.00
2018-07-15T03:23:26.508Z,64.00
2018-07-15T03:24:26.560Z,68.00
2018-07-15T03:25:26.556Z,76.00
2018-07-15T03:26:26.581Z,84.00
2018-07-15T03:27:26.556Z,92.00
2018-07-15T03:28:26.599Z,100.00
2018-07-15T03:29:26.519Z,104.00
2018-07-15T03:30:26.553Z,112.00
2018-07-15T03:31:26.611Z,120.00
2018-07-15T03:32:26.581Z,128.00
2018-07-15T03:33:26.581Z,140.00
2018-07-15T03:34:26.502Z,148.00
2018-07-15T03:35:26.555Z,160.00
2018-07-15T03:36:26.557Z,168.00
2018-07-15T03:37:26.591Z,180.00
2018-07-15T03:38:26.576Z,188.00
2018-07-15T03:39:26.611Z,200.00
2018-07-15T03:40:26.596Z,208.00
2018-07-15T03:41:26.534Z,220.00
2018-07-15T03:42:26.596Z,232.00
2018-07-15T03:43:28.419Z,244.00
2018-07-15T03:44:26.572Z,256.00
2018-07-15T03:45:26.587Z,264.00
2018-07-15T03:46:26.556Z,276.00
2018-07-15T03:47:26.496Z,288.00
2018-07-15T03:48:26.598Z,300.00
2018-07-15T03:49:26.548Z,312.00
2018-07-15T03:50:26.571Z,324.00
2018-07-15T03:51:26.506Z,336.00
2018-07-15T03:52:26.582Z,348.00
2018-07-15T03:53:26.559Z,360.00
2018-07-15T03:54:26.567Z,372.00
2018-07-15T03:55:26.542Z,384.00
2018-07-15T03:56:26.484Z,400.00
2018-07-15T03:57:26.583Z,408.00
2018-07-15T03:58:26.591Z,424.00
2018-07-15T03:59:26.554Z,432.00
2018-07-15T04:00:26.522Z,444.00
2018-07-15T04:01:26.507Z,456.00
2018-07-15T04:02:26.605Z,464.00
2018-07-15T04:03:26.555Z,476.00
2018-07-15T04:04:26.553Z,488.00
2018-07-15T04:05:26.594Z,500.00
2018-07-15T04:06:26.600Z,508.00
2018-07-15T04:07:26.600Z,524.00
2018-07-15T04:08:26.598Z,536.00
2018-07-15T04:09:28.385Z,548.00
2018-07-15T04:10:28.389Z,552.00
2018-07-15T04:11:26.581Z,564.00
2018-07-15T04:12:26.494Z,576.00
2018-07-15T04:13:26.581Z,584.00
2018-07-15T04:14:26.507Z,592.00
2018-07-15T04:15:26.504Z,604.00
2018-07-15T04:16:26.513Z,612.00
2018-07-15T04:17:26.579Z,624.00
2018-07-15T04:18:26.501Z,636.00
2018-07-15T04:19:26.517Z,640.00
2018-07-15T04:20:26.153Z,652.00
2018-07-15T04:21:26.573Z,660.00
2018-07-15T04:22:26.573Z,668.00
2018-07-15T04:23:26.582Z,680.00
2018-07-15T04:24:26.544Z,688.00
2018-07-15T04:25:26.611Z,696.00
2018-07-15T04:26:26.541Z,708.00
2018-07-15T04:27:28.477Z,716.00
2018-07-15T04:28:26.544Z,724.00
2018-07-15T04:29:26.585Z,732.00
2018-07-15T04:30:26.587Z,740.00
2018-07-15T04:31:26.563Z,748.00
2018-07-15T04:32:26.637Z,756.00
2018-07-15T04:33:26.567Z,764.00
2018-07-15T04:34:26.633Z,776.00
2018-07-15T04:35:28.372Z,784.00
2018-07-15T04:36:26.577Z,792.00
2018-07-15T04:37:26.663Z,800.00
2018-07-15T04:38:26.584Z,808.00
2018-07-15T04:39:26.584Z,820.00
2018-07-15T04:40:26.560Z,828.00
2018-07-15T04:41:26.518Z,832.00
2018-07-15T04:42:26.651Z,844.00
2018-07-15T04:43:26.565Z,852.00
2018-07-15T04:44:26.804Z,860.00
2018-07-15T04:45:26.653Z,868.00
2018-07-15T04:46:26.618Z,876.00
2018-07-15T04:47:26.608Z,884.00
2018-07-15T04:48:26.684Z,892.00
2018-07-15T04:49:26.639Z,904.00
2018-07-15T04:50:26.189Z,908.00
2018-07-15T04:51:26.665Z,916.00
2018-07-15T04:52:26.651Z,924.00
2018-07-15T04:53:26.679Z,932.00
2018-07-15T04:54:26.688Z,936.00
2018-07-15T04:55:27.119Z,944.00
2018-07-15T04:56:26.598Z,948.00
2018-07-15T04:57:26.607Z,956.00
2018-07-15T04:58:26.841Z,960.00
2018-07-15T04:59:26.610Z,968.00
2018-07-15T05:00:27.096Z,976.00
2018-07-15T05:01:26.610Z,980.00
2018-07-15T05:02:26.863Z,988.00
2018-07-15T05:03:28.620Z,992.00
2018-07-15T05:04:26.591Z,996.00
2018-07-15T05:05:26.649Z,1004.00
2018-07-15T05:06:26.191Z,1012.00
2018-07-15T05:07:26.599Z,1020.00
2018-07-15T05:08:26.618Z,1028.00
2018-07-15T05:09:26.650Z,1032.00
2018-07-15T05:10:26.662Z,1040.00
2018-07-15T05:11:28.403Z,1052.00
2018-07-15T05:12:26.601Z,1056.00
2018-07-15T05:13:27.146Z,1064.00
2018-07-15T05:14:26.622Z,1072.00
2018-07-15T05:15:26.766Z,1076.00
2018-07-15T05:16:26.606Z,1084.00
2018-07-15T05:17:26.209Z,1088.00
2018-07-15T05:18:26.886Z,1100.00
2018-07-15T05:19:26.711Z,1104.00
2018-07-15T05:20:27.107Z,1108.00
2018-07-15T05:21:26.165Z,1120.00
2018-07-15T05:22:26.764Z,1124.00
2018-07-15T05:23:26.578Z,1132.00
2018-07-15T05:24:26.655Z,1140.00
2018-07-15T05:25:26.645Z,1144.00
2018-07-15T05:26:26.636Z,1152.00
2018-07-15T05:27:28.474Z,1160.00
2018-07-15T05:28:26.621Z,1164.00
2018-07-15T05:29:26.524Z,1172.00
2018-07-15T05:30:26.616Z,1176.00
2018-07-15T05:31:26.553Z,1184.00
2018-07-15T05:32:26.606Z,1192.00
2018-07-15T05:33:26.572Z,1196.00
2018-07-15T05:34:26.638Z,1204.00
2018-07-15T05:35:26.633Z,1204.00
2018-07-15T05:36:26.563Z,1212.00
2018-07-15T05:37:26.558Z,1220.00
2018-07-15T05:38:26.644Z,1220.00
2018-07-15T05:39:26.653Z,1228.00
2018-07-15T05:40:26.544Z,1228.00
2018-07-15T05:41:26.584Z,1236.00
2018-07-15T05:42:26.582Z,1232.00
2018-07-15T05:44:26.662Z,1236.00
2018-07-15T05:45:26.636Z,1244.00
2018-07-15T05:46:26.977Z,1244.00
2018-07-15T05:47:26.120Z,1248.00
2018-07-15T05:48:27.148Z,1252.00
2018-07-15T05:49:26.788Z,1252.00
2018-07-15T05:50:27.136Z,1252.00
2018-07-15T05:51:26.673Z,1260.00
2018-07-15T05:52:26.777Z,1260.00
2018-07-15T05:53:26.592Z,1260.00
2018-07-15T05:54:26.687Z,1264.00
2018-07-15T05:55:27.155Z,1268.00
2018-07-15T05:56:26.638Z,1272.00
2018-07-15T05:57:26.682Z,1272.00
2018-07-15T05:58:26.613Z,1276.00
2018-07-15T05:59:26.679Z,1280.00
2018-07-15T06:00:26.704Z,1284.00
2018-07-15T06:01:26.682Z,1296.00
2018-07-15T06:02:27.252Z,1348.00
2018-07-15T06:03:26.697Z,1412.00
2018-07-15T06:04:26.878Z,1448.00
2018-07-15T06:05:27.188Z,1436.00
2018-07-15T06:06:27.241Z,1376.00
2018-07-15T06:07:26.022Z,1344.00
2018-07-15T06:08:26.646Z,1324.00
2018-07-15T06:09:26.619Z,1316.00
2018-07-15T06:10:26.652Z,1316.00
2018-07-15T06:11:26.659Z,1320.00
2018-07-15T06:12:26.628Z,1320.00
2018-07-15T06:13:26.589Z,1324.00
2018-07-15T06:14:26.640Z,1328.00
2018-07-15T06:15:26.622Z,1332.00
2018-07-15T06:16:26.637Z,1328.00
2018-07-15T06:17:26.586Z,1336.00
2018-07-15T06:18:26.673Z,1336.00
2018-07-15T06:19:26.600Z,1340.00
2018-07-15T06:20:26.661Z,1340.00
2018-07-15T06:21:26.653Z,1348.00
2018-07-15T06:22:26.556Z,1348.00
2018-07-15T06:23:26.613Z,1348.00
2018-07-15T06:24:26.605Z,1352.00
2018-07-15T06:25:26.602Z,1352.00
2018-07-15T06:26:26.580Z,1352.00
2018-07-15T06:27:26.617Z,1360.00
2018-07-15T06:28:26.639Z,1356.00
2018-07-15T06:29:26.595Z,1360.00
2018-07-15T06:30:26.594Z,1360.00
2018-07-15T06:31:26.648Z,1360.00
2018-07-15T06:32:26.645Z,1364.00
2018-07-15T06:33:26.681Z,1368.00
2018-07-15T06:34:26.659Z,1364.00
2018-07-15T06:35:26.624Z,1368.00
2018-07-15T06:36:26.660Z,1368.00
2018-07-15T06:37:26.667Z,1368.00
2018-07-15T06:38:26.664Z,1372.00
2018-07-15T06:39:26.645Z,1368.00
2018-07-15T06:40:26.673Z,1372.00
2018-07-15T06:41:26.649Z,1376.00
2018-07-15T06:42:28.440Z,1376.00
2018-07-15T06:43:27.169Z,1376.00
2018-07-15T06:44:26.797Z,1380.00
2018-07-15T06:45:26.628Z,1380.00
2018-07-15T06:46:27.213Z,1384.00
2018-07-15T06:47:26.636Z,1384.00
2018-07-15T06:48:27.304Z,1384.00
2018-07-15T06:49:26.824Z,1388.00
2018-07-15T06:50:27.167Z,1388.00
2018-07-15T06:51:26.908Z,1388.00
2018-07-15T06:52:26.635Z,1388.00
2018-07-15T06:53:26.655Z,1388.00
2018-07-15T06:54:26.633Z,1392.00
2018-07-15T06:55:26.632Z,1392.00
2018-07-15T06:56:26.610Z,1392.00
2018-07-15T06:57:26.619Z,1396.00
2018-07-15T06:58:26.609Z,1396.00
2018-07-15T06:59:27.238Z,1396.00
2018-07-15T07:00:27.857Z,1400.00
2018-07-15T07:01:26.074Z,1400.00
2018-07-15T07:02:26.905Z,1404.00
2018-07-15T07:03:26.355Z,1404.00
2018-07-15T07:04:26.706Z,1404.00
2018-07-15T07:05:26.685Z,1412.00
2018-07-15T07:06:26.680Z,1408.00
2018-07-15T07:07:26.934Z,1408.00
2018-07-15T07:08:27.315Z,1412.00
2018-07-15T07:09:26.680Z,1412.00
2018-07-15T07:10:26.655Z,1416.00
2018-07-15T07:11:26.838Z,1416.00
2018-07-15T07:12:26.682Z,1420.00
2018-07-15T07:13:26.744Z,1428.00
2018-07-15T07:14:26.681Z,1428.00
2018-07-15T07:15:26.704Z,1432.00
2018-07-15T07:16:26.760Z,1432.00
2018-07-15T07:17:26.671Z,1436.00
2018-07-15T07:18:26.708Z,1436.00
2018-07-15T07:19:26.810Z,1440.00
2018-07-15T07:20:26.765Z,1444.00
2018-07-15T07:21:26.813Z,1444.00
2018-07-15T07:22:26.685Z,1444.00
2018-07-15T07:23:26.811Z,1444.00
2018-07-15T07:24:26.135Z,1452.00
2018-07-15T07:25:26.838Z,1456.00
2018-07-15T07:26:26.685Z,1460.00
2018-07-15T07:27:26.699Z,1464.00
2018-07-15T07:28:26.666Z,1464.00
2018-07-15T07:29:26.983Z,1468.00
2018-07-15T07:30:27.281Z,1472.00
2018-07-15T07:31:26.815Z,1472.00
2018-07-15T07:32:26.646Z,1472.00
2018-07-15T07:33:27.169Z,1476.00
2018-07-15T07:34:26.114Z,1480.00
2018-07-15T07:35:26.731Z,1480.00
2018-07-15T07:36:26.645Z,1480.00
2018-07-15T07:37:28.454Z,1480.00
2018-07-15T07:38:28.399Z,1484.00
2018-07-15T07:39:26.567Z,1488.00
2018-07-15T07:40:26.560Z,1492.00
2018-07-15T07:41:26.588Z,1492.00
2018-07-15T07:42:26.725Z,1496.00
2018-07-15T07:43:26.691Z,1496.00
2018-07-15T07:44:26.634Z,1500.00
2018-07-15T07:45:26.604Z,1504.00
2018-07-15T07:46:26.568Z,1508.00
2018-07-15T07:47:26.632Z,1508.00
2018-07-15T07:48:26.615Z,1512.00
2018-07-15T07:49:26.658Z,1508.00
2018-07-15T07:50:26.650Z,1512.00
2018-07-15T07:51:26.627Z,1520.00
2018-07-15T07:52:27.184Z,1528.00
2018-07-15T07:53:26.457Z,1536.00
2018-07-15T07:54:27.598Z,1536.00
2018-07-15T07:55:26.369Z,1540.00
2018-07-15T07:56:26.080Z,1536.00
2018-07-15T07:57:26.605Z,1536.00
2018-07-15T07:58:26.626Z,1540.00
2018-07-15T07:59:26.667Z,1540.00
2018-07-15T08:00:26.607Z,1544.00
2018-07-15T08:01:26.647Z,1548.00
2018-07-15T08:02:26.716Z,1560.00
2018-07-15T08:03:26.677Z,1560.00
2018-07-15T08:04:26.711Z,1560.00
2018-07-15T08:05:26.937Z,1568.00
2018-07-15T08:06:26.828Z,1568.00
2018-07-15T08:07:26.709Z,1572.00
2018-07-15T08:08:26.647Z,1576.00
2018-07-15T08:09:25.972Z,1572.00
2018-07-15T08:10:26.960Z,1576.00
2018-07-15T08:11:26.637Z,1580.00
2018-07-15T08:12:26.872Z,1576.00
2018-07-15T08:13:27.181Z,1580.00
2018-07-15T08:14:26.576Z,1588.00
2018-07-15T08:15:26.638Z,1592.00
2018-07-15T08:16:26.649Z,1592.00
2018-07-15T08:17:26.666Z,1600.00
2018-07-15T08:18:26.618Z,1600.00
2018-07-15T08:19:26.614Z,1608.00
2018-07-15T08:20:26.655Z,1604.00
2018-07-15T08:21:26.729Z,1608.00
2018-07-15T08:22:26.669Z,1612.00
2018-07-15T08:23:26.687Z,1612.00
2018-07-15T08:24:26.583Z,1624.00
2018-07-15T08:25:26.670Z,1628.00
2018-07-15T08:26:26.610Z,1628.00
2018-07-15T08:27:26.657Z,1628.00
2018-07-15T08:28:26.695Z,1632.00
2018-07-15T08:29:26.622Z,1632.00
2018-07-15T08:30:26.710Z,1632.00
2018-07-15T08:31:26.657Z,1636.00
2018-07-15T08:32:26.652Z,1644.00
2018-07-15T08:33:26.713Z,1648.00
2018-07-15T08:34:26.676Z,1648.00
2018-07-15T08:35:26.595Z,1648.00
2018-07-15T08:36:26.632Z,1656.00
2018-07-15T08:37:26.625Z,1656.00
2018-07-15T08:38:26.917Z,1660.00
2018-07-15T08:39:26.855Z,1660.00
2018-07-15T08:40:26.930Z,1668.00
2018-07-15T08:41:28.464Z,1668.00
2018-07-15T08:42:27.195Z,1676.00
2018-07-15T08:43:26.168Z,1684.00
2018-07-15T08:44:26.606Z,1680.00
2018-07-15T08:45:26.726Z,1680.00
2018-07-15T08:46:26.598Z,1684.00
2018-07-15T08:47:26.647Z,1688.00
2018-07-15T08:48:26.639Z,1696.00
2018-07-15T08:49:26.653Z,1696.00
2018-07-15T08:50:26.660Z,1700.00
2018-07-15T08:51:26.681Z,1700.00
2018-07-15T08:52:26.649Z,1708.00
2018-07-15T08:53:26.655Z,1708.00
2018-07-15T08:54:26.644Z,1716.00
2018-07-15T08:55:26.713Z,1720.00
2018-07-15T08:56:26.612Z,1720.00
2018-07-15T08:57:26.599Z,1724.00
2018-07-15T08:58:26.599Z,1728.00
2018-07-15T08:59:26.681Z,1736.00
2018-07-15T09:00:26.667Z,1744.00
2018-07-15T09:01:26.671Z,1744.00
2018-07-15T09:02:26.679Z,1752.00
2018-07-15T09:03:26.915Z,1760.00
2018-07-15T09:04:26.626Z,1756.00
2018-07-15T09:05:26.084Z,1756.00
2018-07-15T09:06:26.623Z,1756.00
2018-07-15T09:07:26.687Z,1764.00
2018-07-15T09:08:26.084Z,1764.00
2018-07-15T09:09:27.215Z,1768.00
2018-07-15T09:10:26.950Z,1768.00
2018-07-15T09:11:27.196Z,1772.00
2018-07-15T09:12:26.944Z,1776.00
2018-07-15T09:13:27.362Z,1784.00
2018-07-15T09:14:27.217Z,1784.00
2018-07-15T09:15:26.132Z,1784.00
2018-07-15T09:16:26.665Z,1784.00
2018-07-15T09:17:26.675Z,1784.00
2018-07-15T09:18:26.667Z,1792.00
2018-07-15T09:19:26.680Z,1796.00
2018-07-15T09:20:26.660Z,1800.00
2018-07-15T09:21:26.632Z,1808.00
2018-07-15T09:22:26.639Z,1812.00
2018-07-15T09:23:26.659Z,1820.00
2018-07-15T09:24:26.717Z,1824.00
2018-07-15T09:25:26.664Z,1824.00
2018-07-15T09:26:26.670Z,1828.00
2018-07-15T09:27:26.627Z,1836.00
2018-07-15T09:28:26.629Z,1840.00
2018-07-15T09:29:26.659Z,1840.00
2018-07-15T09:30:26.734Z,1844.00
2018-07-15T09:31:26.661Z,1844.00
2018-07-15T09:32:28.398Z,1848.00
2018-07-15T09:33:26.645Z,1852.00
2018-07-15T09:34:26.674Z,1848.00
2018-07-15T09:35:26.679Z,1852.00
2018-07-15T09:36:26.737Z,1852.00
2018-07-15T09:37:27.329Z,1852.00
2018-07-15T09:38:26.723Z,1856.00
2018-07-15T09:39:26.747Z,1864.00
2018-07-15T09:40:27.220Z,1864.00
2018-07-15T09:41:26.976Z,1892.00
2018-07-15T09:42:27.235Z,1940.00
2018-07-15T09:43:26.681Z,1948.00
2018-07-15T09:44:26.668Z,1952.00
2018-07-15T09:45:26.680Z,1956.00
2018-07-15T09:46:26.670Z,1952.00
2018-07-15T09:47:26.725Z,1960.00
2018-07-15T09:48:26.626Z,1968.00
2018-07-15T09:49:26.634Z,1980.00
2018-07-15T09:50:26.627Z,1984.00
2018-07-15T09:51:27.907Z,1988.00
2018-07-15T09:52:27.224Z,1996.00
2018-07-15T09:53:26.719Z,2008.00
2018-07-15T09:54:26.904Z,2016.00
2018-07-15T09:55:26.716Z,2024.00
2018-07-15T09:56:26.714Z,2028.00
2018-07-15T09:57:26.972Z,2036.00
2018-07-15T09:58:27.372Z,2040.00
2018-07-15T09:59:26.811Z,2048.00
2018-07-15T10:00:26.800Z,2060.00
2018-07-15T10:01:26.833Z,2068.00
2018-07-15T10:02:26.789Z,2072.00
2018-07-15T10:03:27.229Z,2076.00
2018-07-15T10:04:26.668Z,2084.00
2018-07-15T10:05:26.703Z,2092.00
2018-07-15T10:06:26.751Z,2096.00
2018-07-15T10:07:28.502Z,2100.00
2018-07-15T10:08:26.718Z,2100.00
2018-07-15T10:09:26.736Z,2100.00
2018-07-15T10:10:26.796Z,2080.00
2018-07-15T10:11:26.317Z,2088.00
2018-07-15T10:12:26.727Z,2092.00
2018-07-15T10:13:26.626Z,2104.00
2018-07-15T10:14:26.707Z,2116.00
2018-07-15T10:15:26.700Z,2120.00
2018-07-15T10:16:26.628Z,2136.00
2018-07-15T10:17:26.734Z,2144.00
2018-07-15T10:18:26.751Z,2156.00
2018-07-15T10:19:27.214Z,2164.00
2018-07-15T10:20:26.750Z,2172.00
2018-07-15T10:21:26.743Z,2180.00
2018-07-15T10:22:27.234Z,2180.00
2018-07-15T10:23:27.016Z,2184.00
2018-07-15T10:24:26.654Z,2188.00
2018-07-15T10:25:27.256Z,2196.00
2018-07-15T10:26:27.693Z,2208.00
2018-07-15T10:27:27.235Z,2220.00
2018-07-15T10:28:27.385Z,2220.00
2018-07-15T10:29:27.234Z,2252.00
2018-07-15T10:30:26.765Z,2240.00
2018-07-15T10:31:27.227Z,2248.00
2018-07-15T10:32:26.722Z,2252.00
2018-07-15T10:33:26.718Z,2260.00
2018-07-15T10:34:27.013Z,2264.00
2018-07-15T10:35:27.396Z,2276.00
2018-07-15T10:36:26.799Z,2284.00
2018-07-15T10:37:27.250Z,2296.00
2018-07-15T10:38:27.241Z,2308.00
2018-07-15T10:39:27.340Z,2320.00
2018-07-15T10:40:26.348Z,2320.00
2018-07-15T10:41:26.934Z,2328.00
2018-07-15T10:42:27.215Z,2332.00
2018-07-15T10:43:26.724Z,2340.00
2018-07-15T10:44:26.712Z,2352.00
2018-07-15T10:45:26.733Z,2364.00
2018-07-15T10:46:26.708Z,2380.00
2018-07-15T10:47:26.706Z,2396.00
2018-07-15T10:48:26.702Z,2404.00
2018-07-15T10:49:26.754Z,2404.00
2018-07-15T10:50:26.728Z,2408.00
2018-07-15T10:51:26.760Z,2424.00
2018-07-15T10:52:26.669Z,2436.00
2018-07-15T10:53:26.721Z,2448.00
2018-07-15T10:54:26.724Z,2464.00
2018-07-15T10:55:26.747Z,2480.00
2018-07-15T10:56:26.732Z,2492.00
2018-07-15T10:57:26.708Z,2504.00
2018-07-15T10:58:26.744Z,2516.00
2018-07-15T10:59:27.394Z,2536.00
2018-07-15T11:00:27.227Z,2556.00
2018-07-15T11:01:27.433Z,2576.00
2018-07-15T11:02:26.771Z,2592.00
2018-07-15T11:03:26.827Z,2608.00
2018-07-15T11:04:27.229Z,2620.00
2018-07-15T11:05:26.782Z,2628.00
2018-07-15T11:06:26.941Z,2644.00
2018-07-15T11:07:26.869Z,2660.00
2018-07-15T11:08:27.388Z,2672.00
2018-07-15T11:09:26.685Z,2688.00
2018-07-15T11:10:28.568Z,2696.00
2018-07-15T11:11:27.252Z,2708.00
2018-07-15T11:12:26.920Z,2720.00
2018-07-15T11:13:26.967Z,2732.00
2018-07-15T11:14:27.527Z,2744.00
2018-07-15T11:15:27.214Z,2752.00
2018-07-15T11:16:26.815Z,2764.00
2018-07-15T11:17:27.259Z,2776.00
2018-07-15T11:18:29.258Z,2788.00
2018-07-15T11:19:28.806Z,2804.00
2018-07-15T11:20:26.726Z,2816.00
2018-07-15T11:21:26.798Z,2776.00
2018-07-15T11:22:27.177Z,2792.00
2018-07-15T11:23:29.409Z,2812.00
2018-07-15T11:24:27.273Z,2828.00
2018-07-15T11:25:26.829Z,2844.00
2018-07-15T11:26:27.267Z,2864.00
2018-07-15T11:27:27.269Z,2884.00
2018-07-15T11:28:27.003Z,2900.00
2018-07-15T11:29:26.820Z,2920.00
2018-07-15T11:30:27.262Z,2932.00
2018-07-15T11:31:26.870Z,2948.00
2018-07-15T11:32:26.808Z,2960.00
2018-07-15T11:33:26.708Z,2968.00
2018-07-15T11:34:26.692Z,2980.00
2018-07-15T11:35:26.755Z,2988.00
2018-07-15T11:36:28.534Z,3000.00
2018-07-15T11:37:26.748Z,3016.00
2018-07-15T11:38:26.345Z,3032.00
2018-07-15T11:39:26.410Z,3040.00
2018-07-15T11:40:26.909Z,3056.00
2018-07-15T11:41:26.841Z,3072.00
2018-07-15T11:42:26.810Z,3080.00
2018-07-15T11:43:26.916Z,3100.00
2018-07-15T11:44:27.278Z,3120.00
2018-07-15T11:45:26.770Z,3132.00
2018-07-15T11:46:26.771Z,3152.00
2018-07-15T11:47:26.771Z,3176.00
2018-07-15T11:48:26.935Z,3192.00
2018-07-15T11:49:26.773Z,3208.00
2018-07-15T11:50:29.810Z,3224.00
2018-07-15T11:51:26.836Z,3240.00
2018-07-15T11:52:27.271Z,3256.00
2018-07-15T11:53:28.727Z,3276.00
2018-07-15T11:54:27.334Z,3292.00
2018-07-15T11:55:27.139Z,3300.00
2018-07-15T11:56:27.425Z,3304.00
2018-07-15T11:57:26.886Z,3312.00
2018-07-15T11:58:26.944Z,3328.00
2018-07-15T11:59:27.452Z,3348.00
2018-07-15T12:00:26.981Z,3368.00
2018-07-15T12:01:26.487Z,3388.00
2018-07-15T12:02:26.988Z,3408.00
2018-07-15T12:03:27.204Z,3428.00
2018-07-15T12:04:27.030Z,3452.00
2018-07-15T12:05:26.798Z,3480.00
2018-07-15T12:06:26.807Z,3496.00
2018-07-15T12:07:26.888Z,3520.00
2018-07-15T12:08:26.973Z,3536.00
2018-07-15T12:09:27.164Z,3544.00
2018-07-15T12:10:27.471Z,3556.00
2018-07-15T12:11:27.267Z,3564.00
2018-07-15T12:12:27.356Z,3592.00
2018-07-15T12:13:26.907Z,3624.00
2018-07-15T12:14:27.381Z,3668.00
2018-07-15T12:15:26.968Z,3716.00
2018-07-15T12:16:26.954Z,3760.00
2018-07-15T12:17:26.804Z,3804.00
2018-07-15T12:18:26.854Z,3836.00
2018-07-15T12:19:27.271Z,3872.00
2018-07-15T12:20:26.527Z,3900.00
2018-07-15T12:21:27.249Z,3924.00
2018-07-15T12:22:27.162Z,3952.00
2018-07-15T12:23:26.814Z,3980.00
2018-07-15T12:24:26.942Z,4032.00
2018-07-15T12:25:26.831Z,4156.00
2018-07-15T12:26:27.342Z,4408.00
2018-07-15T12:27:26.934Z,4892.00
2018-07-15T12:28:26.909Z,8180.00